Time;durP1;ratioP1;P1;durP2;ratioP2;P2;SDS_P1;SDS_P2;PMS_P1;PMS_P2;Temp;Humidity;BMP_temperature;BMP_pressure;BME280_temperature;BME280_humidity;BME280_pressure;Samples;Min_cycle;Max_cycle;Signal;HPM_P1;HPM_P2
2023/09/12 00:01:08;;;;;;;41.88;26.77;;;19.80;99.90;;;;;;5133130;28;20077;-79
2023/09/12 00:03:54;;;;;;;37.28;25.67;;;19.80;99.90;;;;;;5115234;28;20498;-71
2023/09/12 00:06:40;;;;;;;34.75;24.33;;;19.80;99.90;;;;;;5112130;28;20051;-74
2023/09/12 00:09:27;;;;;;;38.78;26.73;;;19.80;99.90;;;;;;5099675;28;20594;-80
2023/09/12 00:12:15;;;;;;;41.55;25.95;;;19.80;99.90;;;;;;5113517;28;20058;-81
2023/09/12 00:15:04;;;;;;;36.45;24.67;;;19.70;99.90;;;;;;5130775;28;20047;-70
2023/09/12 00:17:50;;;;;;;39.72;26.90;;;19.70;99.90;;;;;;5130680;28;20057;-71
2023/09/12 00:20:36;;;;;;;41.10;27.50;;;19.70;99.90;;;;;;5113273;28;20055;-76
2023/09/12 00:23:23;;;;;;;34.33;24.00;;;19.70;99.90;;;;;;5132444;28;20051;-70
2023/09/12 00:26:09;;;;;;;30.77;23.25;;;19.70;99.90;;;;;;5114120;28;20048;-93
2023/09/12 00:28:55;;;;;;;37.20;24.58;;;19.70;99.90;;;;;;5135464;27;20065;-84
2023/09/12 00:31:41;;;;;;;43.25;26.10;;;19.70;99.90;;;;;;5138442;27;20384;-84
2023/09/12 00:34:27;;;;;;;35.20;25.60;;;19.70;99.90;;;;;;5139969;27;20166;-74
2023/09/12 00:37:13;;;;;;;38.05;23.98;;;19.70;99.90;;;;;;5119734;27;20443;-79
2023/09/12 00:39:59;;;;;;;41.72;25.85;;;19.60;99.90;;;;;;5135404;27;20090;-81
2023/09/12 00:42:45;;;;;;;39.78;26.20;;;19.60;99.90;;;;;;5134480;27;20178;-77
2023/09/12 00:45:32;;;;;;;43.17;26.15;;;19.50;99.90;;;;;;5116248;27;20086;-83
2023/09/12 00:48:19;;;;;;;43.08;27.75;;;19.50;99.90;;;;;;5134591;27;20054;-84
2023/09/12 00:51:06;;;;;;;36.08;24.55;;;19.50;99.90;;;;;;5134269;27;20043;-80
2023/09/12 00:53:53;;;;;;;36.13;26.23;;;19.40;99.90;;;;;;5136150;27;20491;-75
2023/09/12 00:56:40;;;;;;;36.97;24.95;;;19.50;99.90;;;;;;5120175;27;20052;-88
2023/09/12 00:59:26;;;;;;;44.65;29.92;;;19.50;99.90;;;;;;5119964;27;20501;-80
2023/09/12 01:02:12;;;;;;;37.97;24.98;;;19.40;99.90;;;;;;5140812;27;20051;-76
2023/09/12 01:04:59;;;;;;;40.72;27.50;;;19.40;99.90;;;;;;5127897;27;20043;-76
2023/09/12 01:07:46;;;;;;;51.40;31.38;;;19.40;99.90;;;;;;5142548;27;20073;-72
2023/09/12 01:10:32;;;;;;;46.60;31.13;;;19.40;99.90;;;;;;5134246;27;20062;-76
2023/09/12 01:13:19;;;;;;;52.90;32.28;;;19.30;99.90;;;;;;5116404;27;20082;-80
2023/09/12 01:16:05;;;;;;;56.13;34.05;;;19.30;99.90;;;;;;5134716;27;20047;-75
2023/09/12 01:18:51;;;;;;;51.35;32.40;;;19.30;99.90;;;;;;5133264;27;20077;-75
2023/09/12 01:21:49;;;;;;;55.40;32.83;;;19.30;99.90;;;;;;5133463;27;20128;-74
2023/09/12 01:24:38;;;;;;;55.22;34.10;;;19.20;99.90;;;;;;5117888;27;20043;-73
2023/09/12 01:27:30;;;;;;;59.05;34.55;;;19.20;99.90;;;;;;5116015;27;20165;-78
2023/09/12 01:30:22;;;;;;;48.17;32.78;;;19.30;99.90;;;;;;5133148;27;20054;-79
2023/09/12 01:33:08;;;;;;;50.75;32.15;;;19.20;99.90;;;;;;5133947;27;20043;-78
2023/09/12 01:35:54;;;;;;;48.58;30.33;;;19.20;99.90;;;;;;5134175;27;20495;-76
2023/09/12 01:38:40;;;;;;;47.95;31.83;;;19.20;99.90;;;;;;5134093;27;20054;-81
2023/09/12 01:41:30;;;;;;;47.80;31.65;;;19.20;99.90;;;;;;5132710;27;20581;-80
2023/09/12 01:44:17;;;;;;;51.10;33.15;;;19.10;99.90;;;;;;5134471;27;20444;-81
2023/09/12 01:47:05;;;;;;;50.20;32.40;;;19.20;99.90;;;;;;5137916;27;20051;-72
2023/09/12 01:49:56;;;;;;;50.70;30.60;;;19.10;99.90;;;;;;5135435;27;20577;-82
2023/09/12 01:52:43;;;;;;;48.05;31.85;;;19.10;99.90;;;;;;5133723;27;20043;-70
2023/09/12 01:55:30;;;;;;;45.53;31.33;;;19.10;99.90;;;;;;5132859;27;20463;-86
2023/09/12 01:58:16;;;;;;;48.00;30.70;;;19.00;99.90;;;;;;5132232;27;20138;-72
2023/09/12 02:01:02;;;;;;;38.58;27.00;;;19.00;99.90;;;;;;5133020;27;20043;-74
2023/09/12 02:03:48;;;;;;;41.42;27.77;;;19.00;99.90;;;;;;5132491;27;20080;-70
2023/09/12 02:06:35;;;;;;;38.92;26.08;;;19.00;99.90;;;;;;5113478;27;20138;-70
2023/09/12 02:09:21;;;;;;;39.50;26.40;;;18.90;99.90;;;;;;5114596;27;20091;-74
2023/09/12 02:12:08;;;;;;;43.95;30.85;;;18.90;99.90;;;;;;5135810;27;20051;-75
2023/09/12 02:14:54;;;;;;;43.75;27.92;;;18.80;99.90;;;;;;5133558;27;20050;-73
2023/09/12 02:17:40;;;;;;;46.13;29.13;;;18.80;99.90;;;;;;5133495;27;20051;-70
2023/09/12 02:20:27;;;;;;;39.17;26.13;;;18.80;99.90;;;;;;5132316;27;20047;-76
2023/09/12 02:23:13;;;;;;;39.30;27.08;;;18.80;99.90;;;;;;5118566;27;20062;-77
2023/09/12 02:25:59;;;;;;;36.55;25.45;;;18.80;99.90;;;;;;5132373;27;20047;-73
2023/09/12 02:31:16;;;;;;;50.47;31.02;;;18.70;99.90;;;;;;5050557;28;20049;-85
2023/09/12 02:34:02;;;;;;;35.83;24.48;;;18.70;99.90;;;;;;5052116;28;20060;-83
2023/09/12 02:36:48;;;;;;;36.20;23.98;;;18.70;99.90;;;;;;5051059;28;20072;-85
2023/09/12 02:39:34;;;;;;;36.05;24.90;;;18.70;99.90;;;;;;5032903;28;20470;-85
2023/09/12 02:42:20;;;;;;;39.55;25.48;;;18.70;99.90;;;;;;5052263;28;20059;-84
2023/09/12 02:45:06;;;;;;;38.05;25.08;;;18.60;99.90;;;;;;5050971;28;20183;-83
2023/09/12 02:47:52;;;;;;;34.17;24.02;;;18.60;99.90;;;;;;5033327;28;20421;-84
2023/09/12 02:50:38;;;;;;;39.97;27.10;;;18.60;99.90;;;;;;5050577;28;20380;-84
2023/09/12 02:53:24;;;;;;;43.70;29.30;;;18.60;99.90;;;;;;5035856;28;20076;-84
2023/09/12 02:56:10;;;;;;;48.95;31.00;;;18.60;99.90;;;;;;5051740;28;20049;-85
2023/09/12 02:58:57;;;;;;;46.28;29.42;;;18.60;99.90;;;;;;5050467;28;20053;-83
2023/09/12 03:01:42;;;;;;;40.03;27.50;;;18.60;99.90;;;;;;5033790;28;20424;-85
2023/09/12 03:04:29;;;;;;;45.38;29.05;;;18.50;99.90;;;;;;5049691;28;20516;-80
2023/09/12 03:07:15;;;;;;;39.58;26.27;;;18.50;99.90;;;;;;5050006;28;20045;-85
2023/09/12 03:10:02;;;;;;;45.45;29.58;;;18.50;99.90;;;;;;5032578;28;20063;-84
2023/09/12 03:12:48;;;;;;;49.03;29.95;;;18.50;99.90;;;;;;5049871;28;20127;-82
2023/09/12 03:15:38;;;;;;;44.15;29.65;;;18.50;99.90;;;;;;5049777;28;20056;-84
2023/09/12 03:18:24;;;;;;;47.22;29.20;;;18.40;99.90;;;;;;5050161;28;20150;-82
2023/09/12 03:21:10;;;;;;;52.97;32.40;;;18.40;99.90;;;;;;5051000;28;20041;-83
2023/09/12 03:23:56;;;;;;;50.40;32.58;;;18.40;99.90;;;;;;5050712;28;20049;-82
2023/09/12 03:26:42;;;;;;;41.90;28.17;;;18.40;99.90;;;;;;5031619;28;20052;-84
2023/09/12 03:29:28;;;;;;;44.05;29.50;;;18.30;99.90;;;;;;5049258;28;20102;-80
2023/09/12 03:32:14;;;;;;;54.53;30.48;;;18.30;99.90;;;;;;5050810;28;20508;-85
2023/09/12 03:35:00;;;;;;;44.42;29.10;;;18.30;99.90;;;;;;5032754;28;20053;-85
2023/09/12 03:37:46;;;;;;;57.13;33.15;;;18.30;99.90;;;;;;5033034;28;20053;-85
2023/09/12 03:40:32;;;;;;;50.00;29.25;;;18.30;99.90;;;;;;5050399;28;20045;-84
2023/09/12 03:43:18;;;;;;;52.90;32.83;;;18.20;99.90;;;;;;5049230;28;20148;-83
2023/09/12 03:46:04;;;;;;;51.40;32.20;;;18.30;99.90;;;;;;5050301;28;20045;-83
2023/09/12 03:48:51;;;;;;;42.83;27.50;;;18.20;99.90;;;;;;5049021;28;20057;-82
2023/09/12 03:51:37;;;;;;;45.80;29.83;;;18.20;99.90;;;;;;5050337;28;20543;-82
2023/09/12 03:54:23;;;;;;;58.67;34.72;;;18.20;99.90;;;;;;5050452;28;20136;-81
2023/09/12 03:57:09;;;;;;;45.30;30.20;;;18.20;99.90;;;;;;5049087;28;20151;-81
2023/09/12 03:59:55;;;;;;;51.83;29.63;;;18.20;99.90;;;;;;5049344;28;20053;-83
2023/09/12 04:02:41;;;;;;;128.32;33.10;;;18.10;99.90;;;;;;5050616;28;20060;-82
2023/09/12 04:05:27;;;;;;;77.38;30.70;;;18.10;99.90;;;;;;5055081;28;20401;-83
2023/09/12 04:08:14;;;;;;;56.17;29.30;;;18.00;99.90;;;;;;5054690;28;20056;-81
2023/09/12 04:11:00;;;;;;;50.55;30.27;;;18.00;99.90;;;;;;5056689;28;20064;-77
2023/09/12 04:13:46;;;;;;;63.35;31.77;;;18.00;99.90;;;;;;5036649;28;20497;-77
2023/09/12 04:16:33;;;;;;;127.55;32.33;;;18.00;99.90;;;;;;5036331;28;20064;-77
2023/09/12 04:19:19;;;;;;;131.32;31.45;;;18.00;99.90;;;;;;5054172;28;20109;-78
2023/09/12 04:22:05;;;;;;;153.02;32.17;;;17.90;99.90;;;;;;5054697;28;20095;-76
2023/09/12 04:24:51;;;;;;;64.30;26.10;;;17.90;99.90;;;;;;5054529;28;20087;-80
2023/09/12 04:27:37;;;;;;;65.15;28.73;;;17.90;99.90;;;;;;5053802;28;20049;-77
2023/09/12 04:30:23;;;;;;;148.77;32.13;;;17.90;99.90;;;;;;5035441;28;20064;-74
2023/09/12 04:33:09;;;;;;;62.17;26.15;;;17.90;99.90;;;;;;5035870;28;20052;-80
2023/09/12 04:35:59;;;;;;;63.35;25.05;;;17.80;99.90;;;;;;5052645;28;20059;-78
2023/09/12 04:38:45;;;;;;;49.00;21.90;;;17.80;99.90;;;;;;5053983;28;20592;-78
2023/09/12 04:41:31;;;;;;;69.97;26.10;;;17.80;99.90;;;;;;5035856;28;20059;-74
2023/09/12 04:44:17;;;;;;;74.57;26.35;;;17.80;99.90;;;;;;5052888;28;20061;-78
2023/09/12 04:47:03;;;;;;;74.88;23.95;;;17.80;99.90;;;;;;5035672;28;20045;-75
2023/09/12 04:49:49;;;;;;;97.63;25.33;;;17.80;99.90;;;;;;5053972;28;20064;-77
2023/09/12 04:52:35;;;;;;;79.38;26.33;;;17.70;99.90;;;;;;5053487;28;20582;-76
2023/09/12 04:55:21;;;;;;;53.92;23.63;;;17.70;99.90;;;;;;5052289;28;20056;-75
2023/09/12 04:58:07;;;;;;;120.20;29.33;;;17.70;99.90;;;;;;5052311;28;20485;-79
2023/09/12 05:00:55;;;;;;;77.38;26.17;;;17.70;99.90;;;;;;5053140;28;20488;-80
2023/09/12 05:03:41;;;;;;;67.13;25.83;;;17.70;99.90;;;;;;5053627;28;20576;-79
2023/09/12 05:06:27;;;;;;;88.50;27.13;;;17.70;99.90;;;;;;5053186;28;20045;-77
2023/09/12 05:09:13;;;;;;;111.55;30.75;;;17.70;99.90;;;;;;5053048;28;20045;-77
2023/09/12 05:11:59;;;;;;;71.70;26.17;;;17.70;99.90;;;;;;5053286;28;20066;-79
2023/09/12 05:14:45;;;;;;;51.35;26.13;;;17.70;99.90;;;;;;5052021;28;20081;-80
2023/09/12 05:17:32;;;;;;;90.90;30.02;;;17.70;99.90;;;;;;5051319;28;20064;-79
2023/09/12 05:20:18;;;;;;;96.22;31.13;;;17.70;99.90;;;;;;5052970;28;20056;-75
2023/09/12 05:23:04;;;;;;;84.72;33.95;;;17.70;99.90;;;;;;5051779;28;20049;-76
2023/09/12 05:25:50;;;;;;;52.58;28.42;;;17.70;99.90;;;;;;5051176;28;20503;-75
2023/09/12 05:28:36;;;;;;;63.22;28.73;;;17.70;99.90;;;;;;5051401;28;20132;-78
2023/09/12 05:31:22;;;;;;;72.50;30.98;;;17.70;99.90;;;;;;5052251;28;20421;-81
2023/09/12 05:34:08;;;;;;;54.05;29.20;;;17.70;99.90;;;;;;5051301;28;20049;-80
2023/09/12 05:36:54;;;;;;;51.55;29.58;;;17.70;99.90;;;;;;5051238;28;20060;-75
2023/09/12 05:39:41;;;;;;;47.72;28.55;;;17.70;99.90;;;;;;5033086;28;20068;-80
2023/09/12 05:42:27;;;;;;;67.20;34.17;;;17.70;99.90;;;;;;5020125;28;20057;-77
2023/09/12 05:45:13;;;;;;;57.63;33.75;;;17.70;99.90;;;;;;5051702;28;20045;-75
2023/09/12 05:48:00;;;;;;;93.65;37.92;;;17.70;99.90;;;;;;5052216;28;20049;-78
2023/09/12 05:50:46;;;;;;;121.15;40.60;;;17.70;99.90;;;;;;5052098;28;20192;-77
2023/09/12 05:53:32;;;;;;;64.97;36.03;;;17.80;99.90;;;;;;5052075;28;20421;-77
2023/09/12 05:56:21;;;;;;;85.47;37.45;;;17.80;99.90;;;;;;5052235;28;20056;-76
2023/09/12 05:59:07;;;;;;;84.53;38.20;;;17.80;99.90;;;;;;5052054;28;20052;-75
2023/09/12 06:01:53;;;;;;;73.07;35.55;;;17.80;99.90;;;;;;5035385;28;20535;-78
2023/09/12 06:04:39;;;;;;;77.88;34.97;;;17.80;99.90;;;;;;5052688;28;20044;-77
2023/09/12 06:07:25;;;;;;;109.07;40.22;;;17.90;99.90;;;;;;5051066;28;20057;-79
2023/09/12 06:10:11;;;;;;;91.22;39.78;;;17.90;99.90;;;;;;5034160;28;20057;-76
2023/09/12 06:12:57;;;;;;;74.35;39.65;;;18.00;99.90;;;;;;5051861;28;20114;-76
2023/09/12 06:15:43;;;;;;;98.50;43.75;;;18.00;99.90;;;;;;5050452;28;20053;-78
2023/09/12 06:18:31;;;;;;;71.00;40.38;;;18.00;99.90;;;;;;5050907;28;20060;-79
2023/09/12 06:21:17;;;;;;;91.97;42.78;;;18.10;99.90;;;;;;5051417;28;20714;-76
2023/09/12 06:24:09;;;;;;;81.80;40.42;;;18.10;99.90;;;;;;5051605;28;20439;-79
2023/09/12 06:26:57;;;;;;;82.25;42.10;;;18.20;99.90;;;;;;5051200;28;20053;-76
2023/09/12 06:29:43;;;;;;;70.63;37.50;;;18.20;99.90;;;;;;5051777;28;20067;-76
2023/09/12 06:32:29;;;;;;;94.43;41.40;;;18.30;99.90;;;;;;5051928;28;20171;-76
2023/09/12 06:35:15;;;;;;;104.47;44.67;;;18.30;99.90;;;;;;5051632;28;20064;-81
2023/09/12 06:38:01;;;;;;;92.15;40.65;;;18.40;99.90;;;;;;5051409;28;20060;-79
2023/09/12 06:40:47;;;;;;;82.82;39.63;;;18.50;99.90;;;;;;5052009;28;20040;-77
2023/09/12 06:43:33;;;;;;;79.32;38.50;;;18.50;99.90;;;;;;5032325;28;20048;-79
2023/09/12 06:46:19;;;;;;;88.68;42.00;;;18.50;99.90;;;;;;5035368;28;20110;-78
2023/09/12 06:49:06;;;;;;;85.18;40.88;;;18.50;99.90;;;;;;5032239;28;20053;-77
2023/09/12 06:51:52;;;;;;;78.43;38.58;;;18.50;99.90;;;;;;5051800;28;20049;-79
2023/09/12 06:54:38;;;;;;;77.25;39.25;;;18.50;99.90;;;;;;5050937;28;20113;-79
2023/09/12 06:57:24;;;;;;;73.97;39.53;;;18.70;99.90;;;;;;5050992;28;20044;-79
2023/09/12 07:00:10;;;;;;;61.25;34.70;;;18.70;99.90;;;;;;5051340;28;20048;-77
2023/09/12 07:02:57;;;;;;;71.10;38.72;;;18.70;99.90;;;;;;5051366;28;20104;-79
2023/09/12 07:05:43;;;;;;;69.00;38.88;;;18.80;99.90;;;;;;5051796;28;20811;-82
2023/09/12 07:08:30;;;;;;;67.45;37.47;;;18.80;99.90;;;;;;5032996;28;20063;-82
2023/09/12 07:11:19;;;;;;;68.03;39.55;;;18.90;99.90;;;;;;5033296;28;20115;-76
2023/09/12 07:14:05;;;;;;;83.53;43.45;;;18.90;99.90;;;;;;5051581;28;20045;-79
2023/09/12 07:16:51;;;;;;;84.00;42.83;;;18.90;99.90;;;;;;5049638;28;20064;-76
2023/09/12 07:19:37;;;;;;;69.20;39.47;;;18.90;99.90;;;;;;5050550;28;20060;-75
2023/09/12 07:22:23;;;;;;;73.47;40.30;;;18.90;99.90;;;;;;5050669;28;20098;-79
2023/09/12 07:25:11;;;;;;;66.75;37.53;;;18.90;99.90;;;;;;5032812;28;20201;-75
2023/09/12 07:27:57;;;;;;;70.10;38.78;;;19.00;99.90;;;;;;5032118;28;20451;-81
2023/09/12 07:30:46;;;;;;;81.13;41.83;;;19.00;99.90;;;;;;5049046;28;20486;-75
2023/09/12 07:33:32;;;;;;;64.82;38.15;;;19.00;99.90;;;;;;5022738;28;20051;-77
2023/09/12 07:36:18;;;;;;;75.35;42.80;;;19.00;99.90;;;;;;5050458;28;20055;-78
2023/09/12 07:39:05;;;;;;;64.25;38.50;;;19.20;99.90;;;;;;5048375;28;20052;-80
2023/09/12 07:41:51;;;;;;;66.43;37.83;;;19.20;99.90;;;;;;5050802;28;20155;-79
2023/09/12 07:44:37;;;;;;;69.30;37.88;;;19.40;99.90;;;;;;5050555;28;20084;-81
2023/09/12 07:47:23;;;;;;;73.10;39.95;;;19.40;99.90;;;;;;5049543;28;20094;-77
2023/09/12 07:50:09;;;;;;;67.60;40.58;;;19.50;99.90;;;;;;5050281;28;20088;-78
2023/09/12 07:52:55;;;;;;;63.38;36.63;;;19.50;99.90;;;;;;5050812;28;20044;-78
2023/09/12 07:55:47;;;;;;;60.88;35.22;;;19.60;99.90;;;;;;5050073;28;20136;-77
2023/09/12 07:58:33;;;;;;;75.72;40.72;;;19.70;99.90;;;;;;5050148;28;20501;-84
2023/09/12 08:01:19;;;;;;;72.97;37.97;;;19.70;99.90;;;;;;5050256;28;20049;-79
2023/09/12 08:04:05;;;;;;;59.72;35.97;;;19.70;99.90;;;;;;5050254;28;20053;-80
2023/09/12 08:06:52;;;;;;;79.65;42.40;;;19.80;99.90;;;;;;5050490;28;20508;-79
2023/09/12 08:09:59;;;;;;;72.30;39.15;;;19.80;99.90;;;;;;5032410;28;20056;-83
2023/09/12 08:12:45;;;;;;;71.50;39.72;;;19.90;99.90;;;;;;5050357;28;20072;-85
2023/09/12 08:15:31;;;;;;;74.80;41.65;;;20.00;99.90;;;;;;5050019;28;20060;-84
2023/09/12 08:18:17;;;;;;;75.65;38.72;;;20.10;99.90;;;;;;5048779;28;20049;-81
2023/09/12 08:21:04;;;;;;;65.95;39.30;;;20.20;99.90;;;;;;5048820;28;20048;-77
2023/09/12 08:23:50;;;;;;;73.53;39.22;;;20.20;99.90;;;;;;5049963;28;20084;-81
2023/09/12 08:26:36;;;;;;;67.03;38.35;;;20.30;99.90;;;;;;5049376;28;20103;-83
2023/09/12 08:29:22;;;;;;;64.60;37.70;;;20.20;99.90;;;;;;5049531;28;20115;-83
2023/09/12 08:32:08;;;;;;;64.57;38.00;;;20.30;99.90;;;;;;5032078;28;20104;-82
2023/09/12 08:34:54;;;;;;;64.78;38.67;;;20.30;99.90;;;;;;5049761;28;20519;-82
2023/09/12 08:37:41;;;;;;;65.50;38.67;;;20.30;99.90;;;;;;5049894;28;20094;-79
2023/09/12 08:40:29;;;;;;;57.78;34.17;;;20.40;99.90;;;;;;5050426;28;20135;-84
2023/09/12 08:43:15;;;;;;;58.90;36.10;;;20.50;99.90;;;;;;5049875;28;20052;-81
2023/09/12 08:46:01;;;;;;;67.13;38.40;;;20.50;99.90;;;;;;5050361;28;20459;-83
2023/09/12 08:48:50;;;;;;;59.17;35.75;;;20.40;99.90;;;;;;5048853;28;20152;-82
2023/09/12 08:51:40;;;;;;;66.68;36.88;;;20.50;99.90;;;;;;5052840;28;20497;-86
2023/09/12 08:54:26;;;;;;;68.05;39.28;;;20.60;99.90;;;;;;5054098;28;20152;-87
2023/09/12 08:57:13;;;;;;;65.35;39.60;;;20.80;99.90;;;;;;5053296;28;20048;-86
2023/09/12 09:00:08;;;;;;;66.72;38.97;;;21.10;99.90;;;;;;5053668;28;20527;-86
2023/09/12 09:02:54;;;;;;;59.30;35.38;;;21.30;99.90;;;;;;5035889;28;20053;-85
2023/09/12 09:05:42;;;;;;;55.58;35.63;;;21.40;99.90;;;;;;5052140;28;20430;-86
2023/09/12 09:08:31;;;;;;;60.40;35.45;;;21.40;99.90;;;;;;5035055;28;20161;-85
2023/09/12 09:11:17;;;;;;;56.45;34.42;;;21.60;99.90;;;;;;5053150;28;20063;-84
2023/09/12 09:14:03;;;;;;;54.60;34.15;;;21.60;99.90;;;;;;5053542;28;20159;-86
2023/09/12 09:16:50;;;;;;;60.67;36.90;;;21.50;99.90;;;;;;5042018;28;20045;-82
2023/09/12 09:19:44;;;;;;;57.05;35.30;;;21.50;99.90;;;;;;5061114;28;20110;-86
2023/09/12 09:22:30;;;;;;;46.58;32.65;;;21.50;99.90;;;;;;5063992;28;20054;-84
2023/09/12 09:25:17;;;;;;;50.55;32.50;;;21.60;99.90;;;;;;5054588;28;20048;-82
2023/09/12 09:28:04;;;;;;;49.47;32.50;;;21.80;99.90;;;;;;5034559;28;20524;-81
2023/09/12 09:30:53;;;;;;;47.17;30.10;;;21.90;99.90;;;;;;5019965;28;20048;-84
2023/09/12 09:33:40;;;;;;;46.92;29.08;;;22.20;99.90;;;;;;5036856;28;20501;-78
2023/09/12 09:36:27;;;;;;;42.78;28.02;;;22.30;99.90;;;;;;5052687;28;20081;-80
2023/09/12 09:39:14;;;;;;;43.97;28.23;;;22.60;99.90;;;;;;5053182;28;20085;-79
2023/09/12 09:42:00;;;;;;;41.20;27.27;;;23.00;99.90;;;;;;5052832;28;20162;-79
2023/09/12 09:44:47;;;;;;;37.03;25.60;;;23.30;99.90;;;;;;5052550;28;20139;-79
2023/09/12 09:47:33;;;;;;;41.83;25.55;;;23.40;99.90;;;;;;5051882;28;20049;-79
2023/09/12 09:50:19;;;;;;;37.45;23.20;;;23.70;99.90;;;;;;5052235;28;20045;-78
2023/09/12 09:53:08;;;;;;;34.53;23.92;;;23.90;99.90;;;;;;5034103;28;20073;-78
2023/09/12 09:56:15;;;;;;;30.02;21.25;;;24.10;99.90;;;;;;5052383;28;20056;-78
2023/09/12 09:59:02;;;;;;;33.95;20.23;;;24.40;99.90;;;;;;5051698;28;20048;-77
2023/09/12 10:01:51;;;;;;;30.15;20.67;;;25.00;99.90;;;;;;5033958;28;20558;-77
2023/09/12 10:04:38;;;;;;;24.95;16.73;;;25.30;99.90;;;;;;5038290;28;20045;-80
2023/09/12 10:07:25;;;;;;;26.80;17.15;;;25.40;99.90;;;;;;5052553;28;20088;-80
2023/09/12 10:10:11;;;;;;;23.80;15.52;;;25.10;99.90;;;;;;5034480;28;20057;-77
2023/09/12 10:12:58;;;;;;;21.35;15.65;;;24.90;99.90;;;;;;5050897;28;20056;-83
2023/09/12 10:15:47;;;;;;;27.13;16.38;;;24.80;99.90;;;;;;5052187;28;20091;-78
2023/09/12 10:18:43;;;;;;;22.25;15.10;;;24.70;99.90;;;;;;5020040;28;20089;-78
2023/09/12 10:21:33;;;;;;;21.10;13.77;;;24.60;99.90;;;;;;5051960;28;20048;-77
2023/09/12 10:24:21;;;;;;;20.55;10.00;;;24.90;99.90;;;;;;5037031;28;20053;-77
2023/09/12 10:27:07;;;;;;;14.20;8.02;;;24.90;99.90;;;;;;5051752;28;20060;-78
2023/09/12 10:29:55;;;;;;;20.85;10.23;;;24.80;99.90;;;;;;5049926;28;20060;-80
2023/09/12 10:32:45;;;;;;;14.15;6.00;;;24.80;99.90;;;;;;5051315;28;20057;-78
2023/09/12 10:35:35;;;;;;;17.67;8.68;;;24.70;99.90;;;;;;5052254;28;20210;-83
2023/09/12 10:38:23;;;;;;;26.60;10.60;;;24.40;99.90;;;;;;5051214;28;20064;-80
2023/09/12 10:41:13;;;;;;;23.83;10.48;;;24.10;99.90;;;;;;5052649;28;20071;-87
2023/09/12 10:44:00;;;;;;;21.85;11.02;;;23.80;99.90;;;;;;5052299;28;20067;-86
2023/09/12 10:46:47;;;;;;;15.57;8.68;;;23.50;99.90;;;;;;5034234;28;20386;-89
2023/09/12 10:49:33;;;;;;;14.25;7.15;;;23.30;99.90;;;;;;5051620;28;20411;-87
2023/09/12 10:52:29;;;;;;;13.80;8.20;;;23.20;99.90;;;;;;5032102;28;20421;-84
2023/09/12 10:55:18;;;;;;;13.00;7.40;;;23.10;99.90;;;;;;5033795;28;20446;-86
2023/09/12 10:58:07;;;;;;;16.00;8.20;;;23.10;99.90;;;;;;5051581;28;20084;-81
2023/09/12 11:01:23;;;;;;;13.75;6.65;;;23.10;99.90;;;;;;5051214;28;20052;-82
2023/09/12 11:04:24;;;;;;;12.30;8.05;;;23.20;99.90;;;;;;5050485;28;20044;-83
2023/09/12 11:07:35;;;;;;;11.98;6.90;;;23.20;99.90;;;;;;5050420;28;20087;-82
2023/09/12 11:10:21;;;;;;;12.95;7.20;;;23.20;99.90;;;;;;5050468;28;20045;-85
2023/09/12 11:13:17;;;;;;;12.85;6.95;;;23.30;99.90;;;;;;5051579;28;20567;-85
2023/09/12 11:16:14;;;;;;;13.27;6.85;;;23.40;99.90;;;;;;5032649;28;20049;-84
2023/09/12 11:19:23;;;;;;;11.02;6.18;;;23.60;99.90;;;;;;5033041;28;20409;-79
2023/09/12 11:22:22;;;;;;;9.27;5.50;;;23.50;99.90;;;;;;5050745;28;20041;-83
2023/09/12 11:25:25;;;;;;;11.40;5.90;;;23.50;99.90;;;;;;5051048;28;20061;-82
2023/09/12 11:28:11;;;;;;;8.18;5.88;;;23.50;99.90;;;;;;5050092;28;20048;-83
2023/09/12 11:30:58;;;;;;;11.68;6.72;;;23.50;99.90;;;;;;5050652;28;20057;-83
2023/09/12 11:33:44;;;;;;;10.68;6.93;;;23.60;99.90;;;;;;5050058;28;20044;-83
2023/09/12 11:36:30;;;;;;;9.80;7.03;;;23.60;99.90;;;;;;5051092;28;20094;-82
2023/09/12 11:39:27;;;;;;;10.32;5.93;;;23.80;99.90;;;;;;5032408;28;20067;-84
2023/09/12 11:42:13;;;;;;;11.02;6.75;;;24.20;99.90;;;;;;5049916;28;20135;-80
2023/09/12 11:45:00;;;;;;;9.32;6.30;;;24.30;99.90;;;;;;5050440;28;20076;-84
2023/09/12 11:47:46;;;;;;;7.95;4.97;;;24.30;99.90;;;;;;5032411;28;20084;-79
2023/09/12 11:50:35;;;;;;;12.57;6.43;;;24.50;99.90;;;;;;5036075;28;20085;-85
2023/09/12 11:53:26;;;;;;;11.70;6.80;;;25.30;99.90;;;;;;5049159;28;20517;-85
2023/09/12 11:56:13;;;;;;;8.38;5.78;;;25.40;99.90;;;;;;5033510;28;20053;-82
2023/09/12 11:59:00;;;;;;;8.77;5.20;;;25.30;99.90;;;;;;5050378;28;20055;-84
2023/09/12 12:01:46;;;;;;;9.75;5.80;;;25.20;99.90;;;;;;5049418;28;20072;-80
2023/09/12 12:04:34;;;;;;;9.63;5.20;;;24.90;99.90;;;;;;5049981;28;20580;-78
2023/09/12 12:07:20;;;;;;;8.52;4.50;;;25.30;99.90;;;;;;5050052;28;20045;-81
2023/09/12 12:10:06;;;;;;;6.78;3.92;;;25.30;99.90;;;;;;5050670;28;20060;-86
2023/09/12 12:12:54;;;;;;;8.85;4.88;;;25.10;99.90;;;;;;5034720;28;20049;-81
2023/09/12 12:15:40;;;;;;;7.53;4.53;;;24.90;99.90;;;;;;5050605;28;20098;-80
2023/09/12 12:18:26;;;;;;;10.75;4.78;;;24.90;99.90;;;;;;5049988;28;20057;-85
2023/09/12 12:21:12;;;;;;;8.15;4.32;;;24.70;99.90;;;;;;5032254;28;20477;-78
2023/09/12 12:24:02;;;;;;;6.35;4.20;;;24.80;99.90;;;;;;5019052;28;20393;-83
2023/09/12 12:26:48;;;;;;;8.35;4.00;;;25.00;99.90;;;;;;5053901;28;20045;-84
2023/09/12 12:29:37;;;;;;;6.75;3.25;;;25.20;99.90;;;;;;5036524;28;20386;-81
2023/09/12 12:32:23;;;;;;;6.00;4.30;;;25.50;99.90;;;;;;5053226;28;20103;-84
2023/09/12 12:35:23;;;;;;;7.20;3.92;;;25.90;99.90;;;;;;5054340;28;20053;-81
2023/09/12 12:38:12;;;;;;;8.18;3.92;;;25.80;99.90;;;;;;5053514;28;20420;-85
2023/09/12 12:40:58;;;;;;;6.72;3.92;;;25.90;99.90;;;;;;5038053;28;20110;-86
2023/09/12 12:43:44;;;;;;;8.32;3.65;;;26.70;99.90;;;;;;5053884;28;20045;-81
2023/09/12 12:46:30;;;;;;;9.82;4.07;;;27.30;99.90;;;;;;5053793;28;20776;-85
2023/09/12 12:49:16;;;;;;;9.10;3.78;;;26.70;99.90;;;;;;5054279;28;20084;-80
2023/09/12 12:52:03;;;;;;;6.85;3.55;;;26.00;99.90;;;;;;5053467;28;20049;-80
2023/09/12 12:54:49;;;;;;;11.00;2.95;;;26.00;99.90;;;;;;5035785;28;20052;-85
2023/09/12 12:57:43;;;;;;;7.15;2.88;;;25.90;99.90;;;;;;5053476;28;20056;-83
2023/09/12 13:00:29;;;;;;;6.55;2.78;;;25.70;99.90;;;;;;5053723;28;20053;-82
2023/09/12 13:03:15;;;;;;;6.82;3.33;;;25.60;99.90;;;;;;5035107;28;20106;-83
2023/09/12 13:06:01;;;;;;;6.70;3.03;;;25.40;99.90;;;;;;5051884;28;20492;-83
2023/09/12 13:08:49;;;;;;;8.70;3.15;;;25.20;99.90;;;;;;5053480;28;20049;-78
2023/09/12 13:11:35;;;;;;;9.40;2.88;;;24.90;99.90;;;;;;5052292;28;20080;-78
2023/09/12 13:14:29;;;;;;;6.68;2.40;;;24.70;99.90;;;;;;5053325;28;20433;-78
2023/09/12 13:17:15;;;;;;;9.43;3.00;;;24.90;99.90;;;;;;5038459;28;20091;-78
2023/09/12 13:20:02;;;;;;;14.10;3.15;;;25.10;99.90;;;;;;5052463;28;20052;-78
2023/09/12 13:22:48;;;;;;;8.07;2.67;;;26.80;99.90;;;;;;5052498;28;20497;-78
2023/09/12 13:25:35;;;;;;;7.57;2.65;;;28.90;99.90;;;;;;5053406;28;20476;-78
2023/09/12 13:28:25;;;;;;;5.57;2.30;;;30.70;98.50;;;;;;5051807;28;20127;-81
2023/09/12 13:31:11;;;;;;;7.82;2.10;;;32.30;96.00;;;;;;5052188;28;20092;-77
2023/09/12 13:33:58;;;;;;;6.10;2.30;;;32.50;93.60;;;;;;5051697;28;20045;-78
2023/09/12 13:36:44;;;;;;;6.18;1.90;;;32.20;92.60;;;;;;5050131;28;20088;-78
2023/09/12 13:39:30;;;;;;;6.68;2.65;;;31.00;93.20;;;;;;5052509;28;20056;-79
2023/09/12 13:42:20;;;;;;;6.05;2.40;;;30.00;94.10;;;;;;5053101;28;20077;-80
2023/09/12 13:45:07;;;;;;;7.18;2.50;;;29.20;94.60;;;;;;5053367;28;20106;-80
2023/09/12 13:47:53;;;;;;;6.13;2.60;;;29.00;95.30;;;;;;5052546;28;20091;-78
2023/09/12 13:50:40;;;;;;;16.67;3.42;;;28.40;95.90;;;;;;5051741;28;20057;-78
2023/09/12 13:53:26;;;;;;;6.80;2.10;;;27.90;96.90;;;;;;5036336;28;20102;-80
2023/09/12 13:56:12;;;;;;;7.68;2.20;;;27.50;97.40;;;;;;5034380;28;20060;-78
2023/09/12 13:58:58;;;;;;;6.75;2.08;;;27.10;97.90;;;;;;5052810;28;20440;-78
2023/09/12 14:01:44;;;;;;;4.97;2.38;;;27.40;98.10;;;;;;5052269;28;20041;-78
2023/09/12 14:04:30;;;;;;;7.30;2.20;;;27.20;98.40;;;;;;5052809;28;20051;-78
2023/09/12 14:07:16;;;;;;;9.30;2.20;;;26.90;98.70;;;;;;5034337;28;20057;-80
2023/09/12 14:10:02;;;;;;;6.90;2.13;;;26.50;99.30;;;;;;5051642;28;20087;-79
2023/09/12 14:12:48;;;;;;;4.55;1.98;;;26.20;99.80;;;;;;5052561;28;20052;-79
2023/09/12 14:15:34;;;;;;;5.28;2.08;;;25.90;99.90;;;;;;5032952;28;20099;-82